createdAt,value
2018-07-06T00:01:50.895Z,15.70
2018-07-06T00:04:29.776Z,15.60
2018-07-06T00:07:08.795Z,15.70
2018-07-06T00:09:47.819Z,15.60
2018-07-06T00:12:26.941Z,15.70
2018-07-06T00:15:05.952Z,15.60
2018-07-06T00:17:44.909Z,15.60
2018-07-06T00:20:24.078Z,15.60
2018-07-06T00:23:03.061Z,15.60
2018-07-06T00:25:42.173Z,15.60
2018-07-06T00:28:21.136Z,15.60
2018-07-06T00:31:00.563Z,15.60
2018-07-06T00:33:39.578Z,15.60
2018-07-06T00:36:18.624Z,15.60
2018-07-06T00:38:57.587Z,15.60
2018-07-06T00:41:36.868Z,15.50
2018-07-06T00:44:15.827Z,15.50
2018-07-06T00:46:54.923Z,15.50
2018-07-06T00:49:34.117Z,15.50
2018-07-06T00:52:13.372Z,15.50
2018-07-06T00:54:52.341Z,15.50
2018-07-06T00:57:31.296Z,15.50
2018-07-06T01:00:10.438Z,15.50
2018-07-06T01:02:49.576Z,15.50
2018-07-06T01:05:28.716Z,15.60
2018-07-06T01:08:07.621Z,15.60
2018-07-06T01:10:46.873Z,15.60
2018-07-06T01:13:25.900Z,15.60
2018-07-06T01:16:05.019Z,15.60
2018-07-06T01:18:43.935Z,15.60
2018-07-06T01:21:22.992Z,15.70
2018-07-06T01:24:02.572Z,15.70
2018-07-06T01:26:41.547Z,15.70
2018-07-06T01:29:20.457Z,15.70
2018-07-06T01:34:32.680Z,15.70
2018-07-06T01:37:11.760Z,15.70
2018-07-06T01:39:50.752Z,15.70
2018-07-06T01:42:29.805Z,15.70
2018-07-06T01:45:09.259Z,15.70
2018-07-06T01:47:49.175Z,15.70
2018-07-06T01:53:01.438Z,15.70
2018-07-06T01:55:40.753Z,15.70
2018-07-06T01:58:19.732Z,15.70
2018-07-06T02:00:58.771Z,15.70
2018-07-06T02:03:38.008Z,15.70
2018-07-06T02:06:17.110Z,15.70
2018-07-06T02:08:56.154Z,15.80
2018-07-06T02:11:35.243Z,15.70
2018-07-06T02:14:14.358Z,15.70
2018-07-06T02:16:53.452Z,15.70
2018-07-06T02:19:32.423Z,15.80
2018-07-06T02:22:11.588Z,15.80
2018-07-06T02:24:50.537Z,15.80
2018-07-06T02:27:29.755Z,15.80
2018-07-06T02:30:08.960Z,15.80
2018-07-06T02:32:48.356Z,15.80
2018-07-06T02:38:00.425Z,15.80
2018-07-06T02:40:39.452Z,15.80
2018-07-06T02:43:18.474Z,15.80
2018-07-06T02:45:57.609Z,15.80
2018-07-06T02:48:36.643Z,15.80
2018-07-06T02:51:15.770Z,15.80
2018-07-06T02:53:54.719Z,15.80
2018-07-06T02:56:33.748Z,15.80
2018-07-06T02:59:12.881Z,15.80
2018-07-06T03:01:51.992Z,15.80
2018-07-06T03:04:30.953Z,15.80
2018-07-06T03:07:09.996Z,15.80
2018-07-06T03:09:49.052Z,15.80
2018-07-06T03:12:28.190Z,15.80
2018-07-06T03:15:07.182Z,15.80
2018-07-06T03:17:46.229Z,15.80
2018-07-06T03:20:26.381Z,15.80
2018-07-06T03:23:05.443Z,15.90
2018-07-06T03:25:44.520Z,15.90
2018-07-06T03:28:23.544Z,15.90
2018-07-06T03:31:02.589Z,15.90
2018-07-06T03:33:41.559Z,15.90
2018-07-06T03:36:20.620Z,15.80
2018-07-06T03:38:59.595Z,15.80
2018-07-06T03:41:38.893Z,15.80
2018-07-06T03:44:17.927Z,15.90
2018-07-06T03:46:56.896Z,15.80
2018-07-06T03:49:35.863Z,15.80
2018-07-06T03:52:15.000Z,15.80
2018-07-06T04:00:00.567Z,15.80
2018-07-06T04:02:39.668Z,15.80
2018-07-06T04:05:18.891Z,15.90
2018-07-06T04:07:57.932Z,15.90
2018-07-06T04:10:36.907Z,15.90
2018-07-06T04:13:15.881Z,15.90
2018-07-06T04:15:55.039Z,15.90
2018-07-06T04:18:33.992Z,15.80
2018-07-06T04:21:13.139Z,15.90
2018-07-06T04:23:52.256Z,15.90
2018-07-06T04:26:31.463Z,15.90
2018-07-06T04:29:10.299Z,15.90
2018-07-06T04:31:49.332Z,15.90
2018-07-06T04:34:28.338Z,15.90
2018-07-06T04:37:07.390Z,15.90
2018-07-06T04:39:46.389Z,16.00
2018-07-06T04:42:25.339Z,16.00
2018-07-06T04:45:04.407Z,16.00
2018-07-06T04:47:43.482Z,16.00
2018-07-06T04:50:22.669Z,16.00
2018-07-06T04:53:01.897Z,16.00
2018-07-06T04:55:40.951Z,16.00
2018-07-06T04:58:20.260Z,16.00
2018-07-06T05:00:59.325Z,16.00
2018-07-06T05:03:38.248Z,16.00
2018-07-06T05:06:17.372Z,16.10
2018-07-06T05:08:56.395Z,16.10
2018-07-06T05:11:35.460Z,16.10
2018-07-06T05:14:14.768Z,16.10
2018-07-06T05:16:53.924Z,16.20
2018-07-06T05:19:33.059Z,16.20
2018-07-06T05:22:13.205Z,16.20
2018-07-06T05:24:52.411Z,16.30
2018-07-06T05:27:31.524Z,16.30
2018-07-06T05:30:10.744Z,16.30
2018-07-06T05:32:49.735Z,16.30
2018-07-06T05:35:28.801Z,16.40
2018-07-06T05:38:07.795Z,16.40
2018-07-06T05:40:46.750Z,16.50
2018-07-06T05:43:25.706Z,16.60
2018-07-06T05:46:04.827Z,16.60
2018-07-06T05:48:43.735Z,16.70
2018-07-06T05:51:22.919Z,16.70
2018-07-06T05:54:01.928Z,16.80
2018-07-06T05:56:40.947Z,16.80
2018-07-06T05:59:20.339Z,16.80
2018-07-06T06:01:59.483Z,16.80
2018-07-06T06:04:38.471Z,16.70
2018-07-06T06:07:17.545Z,16.70
2018-07-06T06:09:45.124Z,16.70
2018-07-06T06:12:12.759Z,16.70
2018-07-06T06:14:40.316Z,16.70
2018-07-06T06:17:07.933Z,16.80
2018-07-06T06:19:35.688Z,16.80
2018-07-06T06:22:03.468Z,16.90
2018-07-06T06:24:31.067Z,16.90
2018-07-06T06:27:00.942Z,17.00
2018-07-06T06:29:29.318Z,17.10
2018-07-06T06:31:57.525Z,17.30
2018-07-06T06:34:25.426Z,17.40
2018-07-06T06:36:53.076Z,17.50
2018-07-06T06:39:24.667Z,17.60
2018-07-06T06:41:52.303Z,17.70
2018-07-06T06:44:20.119Z,17.70
2018-07-06T06:46:47.845Z,17.70
2018-07-06T06:49:15.420Z,17.80
2018-07-06T06:51:43.635Z,17.80
2018-07-06T06:54:11.227Z,17.90
2018-07-06T06:56:38.943Z,18.00
2018-07-06T06:59:06.566Z,18.10
2018-07-06T07:01:34.361Z,18.10
2018-07-06T07:04:01.953Z,18.10
2018-07-06T07:06:29.626Z,18.20
2018-07-06T07:08:57.272Z,18.20
2018-07-06T07:11:24.975Z,18.30
2018-07-06T07:13:52.746Z,18.40
2018-07-06T07:16:20.235Z,18.40
2018-07-06T07:18:47.856Z,18.50
2018-07-06T07:21:15.643Z,18.50
2018-07-06T07:23:43.350Z,18.50
2018-07-06T07:26:10.976Z,18.50
2018-07-06T07:28:38.604Z,18.60
2018-07-06T07:31:06.195Z,18.70
2018-07-06T07:33:33.834Z,18.80
2018-07-06T07:36:01.603Z,18.90
2018-07-06T07:38:29.211Z,19.10
2018-07-06T07:40:56.850Z,19.20
2018-07-06T07:43:24.539Z,19.40
2018-07-06T07:45:52.116Z,19.50
2018-07-06T07:48:19.673Z,19.60
2018-07-06T07:50:58.606Z,19.70
2018-07-06T07:53:37.654Z,19.90
2018-07-06T07:56:05.228Z,19.90
2018-07-06T07:58:32.781Z,20.10
2018-07-06T08:01:00.784Z,20.20
2018-07-06T08:03:28.192Z,20.30
2018-07-06T08:05:55.793Z,20.40
2018-07-06T08:08:23.764Z,20.60
2018-07-06T08:10:51.311Z,20.80
2018-07-06T08:13:18.903Z,20.90
2018-07-06T08:15:48.042Z,21.10
2018-07-06T08:18:15.651Z,21.20
2018-07-06T08:20:43.147Z,21.40
2018-07-06T08:25:38.231Z,21.80
2018-07-06T08:28:05.795Z,21.90
2018-07-06T08:30:33.338Z,22.00
2018-07-06T08:33:01.237Z,22.00
2018-07-06T08:36:40.218Z,22.00
2018-07-06T08:39:07.731Z,22.10
2018-07-06T08:41:36.552Z,22.10
2018-07-06T08:44:04.094Z,22.00
2018-07-06T08:46:31.676Z,21.90
2018-07-06T08:48:59.234Z,21.90
2018-07-06T08:51:26.831Z,21.80
2018-07-06T08:53:54.443Z,21.70
2018-07-06T08:56:22.594Z,21.70
2018-07-06T08:58:50.434Z,21.70
2018-07-06T09:01:18.004Z,21.80
2018-07-06T09:03:45.756Z,21.90
2018-07-06T09:06:13.611Z,21.90
2018-07-06T09:08:45.348Z,21.80
2018-07-06T09:11:12.895Z,21.80
2018-07-06T09:13:40.429Z,21.80
2018-07-06T09:16:08.047Z,21.90
2018-07-06T09:18:35.868Z,21.90
2018-07-06T09:21:03.540Z,21.90
2018-07-06T09:23:30.952Z,22.00
2018-07-06T09:25:58.713Z,21.90
2018-07-06T09:28:26.212Z,21.80
2018-07-06T09:30:53.907Z,21.60
2018-07-06T09:33:21.519Z,21.40
2018-07-06T09:35:49.056Z,21.40
2018-07-06T09:38:16.647Z,21.30
2018-07-06T09:40:44.196Z,21.20
2018-07-06T09:43:11.763Z,21.20
2018-07-06T09:45:39.279Z,21.30
2018-07-06T09:48:06.899Z,21.30
2018-07-06T09:50:34.447Z,21.40
2018-07-06T09:53:01.999Z,21.50
2018-07-06T09:55:29.508Z,21.90
2018-07-06T09:57:57.112Z,22.40
2018-07-06T10:02:57.880Z,23.60
2018-07-06T10:05:25.412Z,24.20
2018-07-06T10:07:53.176Z,24.80
2018-07-06T10:10:20.958Z,25.20
2018-07-06T10:12:48.428Z,25.80
2018-07-06T10:15:15.999Z,26.30
2018-07-06T10:17:43.552Z,26.30
2018-07-06T10:20:11.164Z,26.50
2018-07-06T10:22:38.719Z,26.50
2018-07-06T10:25:06.316Z,26.30
2018-07-06T10:27:44.321Z,26.00
2018-07-06T10:30:22.159Z,25.70
2018-07-06T10:32:49.687Z,25.80
2018-07-06T10:35:17.275Z,25.90
2018-07-06T10:37:45.209Z,26.00
2018-07-06T10:40:12.889Z,26.60
2018-07-06T10:42:40.410Z,26.60
2018-07-06T10:45:08.103Z,26.30
2018-07-06T10:47:35.865Z,26.40
2018-07-06T10:50:03.436Z,26.30
2018-07-06T10:52:31.026Z,26.60
2018-07-06T10:54:58.603Z,26.50
2018-07-06T10:59:53.707Z,25.80
2018-07-06T11:02:21.463Z,25.30
2018-07-06T11:04:49.119Z,24.90
2018-07-06T11:07:16.663Z,24.60
2018-07-06T11:09:44.311Z,24.60
2018-07-06T11:12:11.907Z,25.30
2018-07-06T11:14:39.467Z,25.80
2018-07-06T11:17:07.036Z,26.20
2018-07-06T11:19:34.614Z,26.00
2018-07-06T11:22:02.157Z,26.30
2018-07-06T11:24:29.691Z,27.00
2018-07-06T11:26:57.244Z,27.60
2018-07-06T11:29:24.839Z,28.50
2018-07-06T11:31:52.436Z,29.30
2018-07-06T11:34:20.019Z,29.80
2018-07-06T11:36:47.563Z,29.80
2018-07-06T11:41:42.828Z,29.20
2018-07-06T11:44:10.380Z,28.10
2018-07-06T11:46:37.976Z,27.60
2018-07-06T11:49:05.575Z,27.80
2018-07-06T11:51:33.221Z,28.30
2018-07-06T11:54:00.814Z,28.40
2018-07-06T11:56:28.364Z,28.20
2018-07-06T11:58:55.984Z,27.70
2018-07-06T12:01:23.523Z,27.40
2018-07-06T12:03:51.084Z,27.80
2018-07-06T12:06:18.659Z,28.40
2018-07-06T12:08:46.324Z,29.10
2018-07-06T12:11:13.883Z,29.70
2018-07-06T12:13:41.428Z,29.70
2018-07-06T12:16:09.014Z,29.90
2018-07-06T12:18:36.664Z,30.40
2018-07-06T12:21:04.292Z,30.60
2018-07-06T12:23:31.851Z,31.10
2018-07-06T12:25:59.375Z,31.20
2018-07-06T12:28:27.067Z,30.60
2018-07-06T12:30:54.799Z,30.60
2018-07-06T12:33:22.375Z,30.70
2018-07-06T12:35:49.954Z,30.40
2018-07-06T12:38:17.548Z,30.70
2018-07-06T12:40:45.112Z,31.20
2018-07-06T12:43:12.649Z,31.40
2018-07-06T12:45:40.223Z,31.80
2018-07-06T12:48:07.843Z,31.90
2018-07-06T12:50:35.423Z,31.70
2018-07-06T12:53:03.119Z,31.30
2018-07-06T12:55:31.214Z,30.60
2018-07-06T12:57:58.773Z,29.80
2018-07-06T13:00:26.361Z,29.80
2018-07-06T13:05:21.813Z,29.60
2018-07-06T13:07:49.403Z,29.20
2018-07-06T13:10:17.041Z,29.20
2018-07-06T13:12:44.597Z,29.60
2018-07-06T13:15:12.171Z,29.50
2018-07-06T13:17:39.815Z,29.40
2018-07-06T13:20:07.419Z,29.20
2018-07-06T13:22:34.983Z,29.00
2018-07-06T13:25:02.539Z,28.80
2018-07-06T13:27:30.290Z,28.40
2018-07-06T13:29:57.828Z,28.30
2018-07-06T13:32:25.964Z,28.60
2018-07-06T13:34:53.777Z,28.90
2018-07-06T13:37:21.364Z,28.90
2018-07-06T13:39:48.894Z,29.00
2018-07-06T13:42:16.472Z,29.00
2018-07-06T13:44:44.041Z,28.60
2018-07-06T13:47:11.632Z,28.50
2018-07-06T13:49:39.155Z,28.60
2018-07-06T13:52:06.755Z,29.00
2018-07-06T13:54:34.534Z,29.60
2018-07-06T13:57:02.103Z,30.10
2018-07-06T13:59:29.720Z,30.10
2018-07-06T14:01:57.539Z,29.60
2018-07-06T14:04:25.703Z,29.70
2018-07-06T14:06:53.299Z,29.70
2018-07-06T14:09:20.834Z,29.30
2018-07-06T14:11:48.446Z,29.00
2018-07-06T14:16:43.480Z,28.20
2018-07-06T14:19:11.036Z,28.00
2018-07-06T14:21:38.645Z,27.90
2018-07-06T14:24:06.440Z,27.70
2018-07-06T14:26:34.066Z,27.40
2018-07-06T14:29:01.789Z,27.20
2018-07-06T14:31:29.466Z,27.00
2018-07-06T14:33:57.035Z,26.80
2018-07-06T14:36:24.885Z,26.70
2018-07-06T14:38:56.951Z,26.60
2018-07-06T14:41:24.540Z,26.90
2018-07-06T14:43:52.077Z,27.30
2018-07-06T14:46:19.799Z,27.70
2018-07-06T14:48:47.359Z,28.20
2018-07-06T14:51:14.943Z,28.70
2018-07-06T14:53:42.522Z,29.20
2018-07-06T14:56:10.091Z,29.50
2018-07-06T15:01:05.208Z,30.00
2018-07-06T15:06:00.652Z,30.30
2018-07-06T15:08:28.308Z,30.20
2018-07-06T15:10:56.129Z,30.20
2018-07-06T15:13:23.679Z,30.10
2018-07-06T15:15:51.271Z,29.70
2018-07-06T15:18:18.877Z,29.20
2018-07-06T15:20:46.427Z,28.60
2018-07-06T15:23:13.974Z,28.20
2018-07-06T15:25:41.544Z,27.90
2018-07-06T15:28:09.092Z,27.90
2018-07-06T15:30:36.663Z,28.10
2018-07-06T15:33:04.387Z,28.20
2018-07-06T15:35:31.931Z,28.40
2018-07-06T15:37:59.484Z,28.40
2018-07-06T15:40:27.496Z,28.50
2018-07-06T15:42:55.301Z,28.70
2018-07-06T15:45:22.837Z,28.70
2018-07-06T15:47:50.392Z,28.80
2018-07-06T15:50:18.083Z,28.90
2018-07-06T15:52:45.619Z,28.90
2018-07-06T15:55:13.287Z,28.50
2018-07-06T15:57:41.086Z,28.10
2018-07-06T16:00:08.683Z,27.80
2018-07-06T16:02:36.367Z,27.40
2018-07-06T16:05:04.342Z,27.00
2018-07-06T16:07:31.930Z,26.70
2018-07-06T16:09:59.612Z,26.40
2018-07-06T16:12:27.513Z,26.30
2018-07-06T16:14:55.199Z,26.10
2018-07-06T16:17:22.753Z,25.90
2018-07-06T16:19:50.331Z,25.70
2018-07-06T16:22:17.859Z,25.60
2018-07-06T16:24:48.139Z,25.50
2018-07-06T16:27:15.900Z,25.40
2018-07-06T16:29:43.442Z,25.30
2018-07-06T16:32:10.968Z,25.20
2018-07-06T16:34:38.530Z,25.20
2018-07-06T16:37:06.153Z,25.30
2018-07-06T16:39:33.807Z,25.30
2018-07-06T16:42:01.427Z,25.40
2018-07-06T16:44:30.419Z,25.50
2018-07-06T16:47:00.214Z,25.60
2018-07-06T16:49:29.776Z,25.50
2018-07-06T16:51:58.287Z,25.50
2018-07-06T16:54:27.975Z,25.50
2018-07-06T16:57:11.231Z,25.50
2018-07-06T16:59:40.184Z,25.50
2018-07-06T17:02:07.776Z,25.50
2018-07-06T17:04:35.991Z,25.40
2018-07-06T17:07:04.252Z,25.30
2018-07-06T17:09:32.087Z,25.20
2018-07-06T17:11:59.662Z,25.10
2018-07-06T17:14:27.278Z,25.00
2018-07-06T17:16:55.121Z,24.90
2018-07-06T17:19:23.234Z,24.80
2018-07-06T17:21:50.864Z,24.80
2018-07-06T17:24:18.465Z,24.60
2018-07-06T17:26:46.319Z,24.20
2018-07-06T17:29:14.479Z,23.70
2018-07-06T17:31:42.984Z,23.30
2018-07-06T17:34:10.824Z,22.90
2018-07-06T17:39:06.295Z,22.30
2018-07-06T17:41:34.002Z,22.00
2018-07-06T17:44:02.229Z,21.70
2018-07-06T17:46:30.456Z,21.40
2018-07-06T17:48:58.221Z,21.20
2018-07-06T17:51:25.962Z,21.00
2018-07-06T17:53:57.706Z,20.80
2018-07-06T17:56:25.376Z,20.60
2018-07-06T17:58:53.985Z,20.50
2018-07-06T18:01:21.627Z,20.40
2018-07-06T18:03:49.358Z,20.40
2018-07-06T18:06:17.005Z,20.60
2018-07-06T18:08:44.642Z,20.70
2018-07-06T18:11:12.261Z,20.80
2018-07-06T18:13:40.100Z,20.90
2018-07-06T18:16:08.296Z,20.90
2018-07-06T18:18:36.264Z,20.90
2018-07-06T18:21:07.877Z,21.00
2018-07-06T18:23:35.563Z,21.20
2018-07-06T18:26:03.364Z,21.20
2018-07-06T18:28:31.635Z,21.30
2018-07-06T18:31:00.253Z,21.40
2018-07-06T18:33:27.995Z,21.50
2018-07-06T18:35:55.592Z,21.60
2018-07-06T18:38:23.401Z,21.60
2018-07-06T18:40:51.096Z,21.70
2018-07-06T18:43:18.802Z,21.70
2018-07-06T18:45:46.438Z,21.70
2018-07-06T18:48:14.071Z,21.80
2018-07-06T18:50:41.653Z,21.50
2018-07-06T18:53:09.384Z,21.30
2018-07-06T18:55:37.311Z,21.10
2018-07-06T18:58:05.008Z,20.80
2018-07-06T19:00:32.781Z,20.60
2018-07-06T19:03:00.423Z,20.40
2018-07-06T19:05:28.027Z,20.20
2018-07-06T19:07:56.272Z,20.00
2018-07-06T19:10:23.893Z,19.90
2018-07-06T19:12:51.512Z,19.70
2018-07-06T19:15:19.139Z,19.50
2018-07-06T19:17:46.751Z,19.40
2018-07-06T19:20:14.384Z,19.30
2018-07-06T19:22:42.073Z,19.20
2018-07-06T19:25:09.836Z,19.00
2018-07-06T19:27:37.816Z,18.90
2018-07-06T19:30:05.495Z,18.80
2018-07-06T19:32:33.104Z,18.70
2018-07-06T19:35:00.828Z,18.60
2018-07-06T19:37:28.423Z,18.60
2018-07-06T19:42:23.690Z,18.40
2018-07-06T19:44:55.260Z,18.40
2018-07-06T19:47:22.937Z,18.40
2018-07-06T19:49:50.500Z,18.30
2018-07-06T19:52:18.312Z,18.30
2018-07-06T19:54:45.944Z,18.30
2018-07-06T19:57:13.532Z,18.20
2018-07-06T19:59:41.162Z,18.20
2018-07-06T20:04:36.678Z,18.10
2018-07-06T20:07:04.422Z,18.00
2018-07-06T20:09:32.012Z,18.00
2018-07-06T20:12:00.872Z,17.90
2018-07-06T20:14:28.482Z,17.90
2018-07-06T20:16:56.231Z,17.90
2018-07-06T20:19:23.912Z,17.90
2018-07-06T20:21:51.401Z,17.80
2018-07-06T20:24:19.139Z,17.70
2018-07-06T20:26:46.775Z,17.70
2018-07-06T20:29:14.373Z,17.70
2018-07-06T20:31:42.107Z,17.70
2018-07-06T20:34:09.689Z,17.60
2018-07-06T20:36:37.303Z,17.50
2018-07-06T20:39:05.393Z,17.50
2018-07-06T20:41:33.240Z,17.50
2018-07-06T20:44:00.933Z,17.50
2018-07-06T20:46:28.835Z,17.40
2018-07-06T20:48:56.541Z,17.40
2018-07-06T20:51:24.192Z,17.40
2018-07-06T20:53:51.920Z,17.40
2018-07-06T20:56:19.759Z,17.40
2018-07-06T20:58:47.329Z,17.40
2018-07-06T21:01:15.049Z,17.40
2018-07-06T21:03:42.651Z,17.40
2018-07-06T21:06:10.236Z,17.40
2018-07-06T21:08:38.146Z,17.40
2018-07-06T21:11:05.855Z,17.40
2018-07-06T21:13:33.685Z,17.30
2018-07-06T21:16:01.359Z,17.30
2018-07-06T21:18:29.007Z,17.20
2018-07-06T21:20:56.608Z,17.20
2018-07-06T21:23:24.212Z,17.10
2018-07-06T21:25:51.822Z,17.10
2018-07-06T21:28:19.398Z,17.00
2018-07-06T21:33:14.666Z,16.90
2018-07-06T21:35:42.251Z,16.80
2018-07-06T21:38:09.863Z,16.70
2018-07-06T21:40:37.488Z,16.60
2018-07-06T21:43:05.123Z,16.50
2018-07-06T21:45:32.728Z,16.40
2018-07-06T21:48:00.286Z,16.40
2018-07-06T21:50:28.011Z,16.30
2018-07-06T21:52:55.838Z,16.20
2018-07-06T21:55:23.484Z,16.20
2018-07-06T21:57:51.060Z,16.10
2018-07-06T22:00:28.853Z,16.00
2018-07-06T22:02:56.438Z,16.00
2018-07-06T22:05:24.064Z,16.00
2018-07-06T22:07:51.679Z,15.90
2018-07-06T22:10:19.283Z,15.90
2018-07-06T22:12:46.857Z,15.80
2018-07-06T22:15:14.908Z,15.80
2018-07-06T22:17:42.528Z,15.70
2018-07-06T22:20:10.111Z,15.70
2018-07-06T22:22:37.778Z,15.70
2018-07-06T22:25:05.600Z,15.60
2018-07-06T22:27:33.183Z,15.50
2018-07-06T22:30:00.865Z,15.50
2018-07-06T22:32:28.485Z,15.40
2018-07-06T22:34:56.076Z,15.30
2018-07-06T22:37:23.624Z,15.20
2018-07-06T22:39:51.380Z,15.20
2018-07-06T22:42:18.955Z,15.10
2018-07-06T22:44:46.583Z,15.10
2018-07-06T22:47:14.489Z,15.00
2018-07-06T22:49:42.087Z,15.00
2018-07-06T22:52:09.704Z,15.00
2018-07-06T22:54:37.283Z,15.00
2018-07-06T22:57:04.885Z,15.00
2018-07-06T22:59:32.433Z,15.00
2018-07-06T23:02:00.031Z,15.00
2018-07-06T23:04:27.738Z,15.00
2018-07-06T23:06:55.525Z,14.90
2018-07-06T23:09:23.328Z,14.80
2018-07-06T23:11:50.972Z,14.80
2018-07-06T23:14:18.605Z,14.80
2018-07-06T23:16:46.564Z,14.70
2018-07-06T23:19:14.116Z,14.60
2018-07-06T23:21:41.738Z,14.50
2018-07-06T23:26:36.912Z,14.30
2018-07-06T23:29:04.617Z,14.30
2018-07-06T23:31:32.164Z,14.30
2018-07-06T23:33:59.735Z,14.20
2018-07-06T23:38:54.849Z,14.20
2018-07-06T23:41:22.527Z,14.10
2018-07-06T23:43:50.358Z,14.10
2018-07-06T23:46:17.916Z,14.10
2018-07-06T23:48:45.595Z,14.00
2018-07-06T23:51:13.188Z,14.00
2018-07-06T23:53:40.798Z,13.90
2018-07-06T23:56:08.479Z,13.90
2018-07-06T23:58:36.109Z,13.90
